Time;durP1;ratioP1;P1;durP2;ratioP2;P2;SDS_P1;SDS_P2;PMS_P1;PMS_P2;Temp;Humidity;BMP_temperature;BMP_pressure;BME280_temperature;BME280_humidity;BME280_pressure;Samples;Min_cycle;Max_cycle;Signal;HPM_P1;HPM_P2
2024/04/08 00:00:47;;;;;;;3.67;1.95;;;13.30;91.40;;;;;;5466713;26;20002;-80
2024/04/08 00:03:16;;;;;;;4.22;1.90;;;13.30;91.10;;;;;;5450682;26;20090;-79
2024/04/08 00:05:43;;;;;;;8.13;2.00;;;13.30;91.50;;;;;;5512149;26;20067;-79
2024/04/08 00:08:10;;;;;;;8.07;2.03;;;13.30;91.60;;;;;;5443641;26;19998;-79
2024/04/08 00:10:37;;;;;;;4.35;2.10;;;13.30;91.60;;;;;;5455665;26;20005;-79
2024/04/08 00:13:05;;;;;;;6.53;2.35;;;13.30;91.50;;;;;;5490107;26;20002;-79
2024/04/08 00:15:33;;;;;;;4.28;1.92;;;13.30;92.10;;;;;;5489116;26;19994;-79
2024/04/08 00:18:00;;;;;;;4.07;1.85;;;13.30;92.20;;;;;;5424337;26;20015;-81
2024/04/08 00:20:28;;;;;;;4.97;2.08;;;13.30;92.00;;;;;;5428716;26;20030;-79
2024/04/08 00:22:55;;;;;;;5.07;2.17;;;13.20;92.00;;;;;;5432223;26;19995;-79
2024/04/08 00:25:22;;;;;;;5.25;1.92;;;13.20;92.80;;;;;;5428447;26;20072;-80
2024/04/08 00:27:49;;;;;;;5.32;2.30;;;13.20;92.20;;;;;;5440939;26;20003;-79
2024/04/08 00:30:16;;;;;;;6.93;2.15;;;13.20;92.80;;;;;;5499824;25;20013;-80
2024/04/08 00:32:43;;;;;;;5.28;2.28;;;13.20;92.90;;;;;;5442111;26;20450;-80
2024/04/08 00:35:10;;;;;;;4.93;2.92;;;13.20;92.50;;;;;;5438186;26;20025;-80
2024/04/08 00:37:42;;;;;;;5.82;3.05;;;13.20;93.40;;;;;;5466443;26;19998;-79
2024/04/08 00:40:09;;;;;;;7.40;3.20;;;13.10;93.40;;;;;;5476872;26;20005;-79
2024/04/08 00:42:36;;;;;;;5.72;3.30;;;13.00;94.10;;;;;;5510741;26;20333;-79
2024/04/08 00:45:03;;;;;;;6.35;2.70;;;13.00;93.80;;;;;;5513074;26;20075;-78
2024/04/08 00:47:30;;;;;;;9.50;3.28;;;13.00;93.70;;;;;;5477652;26;20055;-80
2024/04/08 00:49:58;;;;;;;10.43;3.00;;;13.00;93.60;;;;;;5433854;26;20071;-80
2024/04/08 00:52:25;;;;;;;7.53;2.90;;;12.90;93.90;;;;;;5479575;26;20079;-79
2024/04/08 00:54:52;;;;;;;6.97;2.90;;;12.90;93.90;;;;;;5436946;26;20017;-79
2024/04/08 00:57:20;;;;;;;5.47;2.80;;;12.90;94.10;;;;;;5459421;26;20014;-80
2024/04/08 00:59:49;;;;;;;3.90;2.60;;;12.90;94.40;;;;;;5461739;26;20031;-78
2024/04/08 01:02:18;;;;;;;6.18;2.90;;;12.80;94.50;;;;;;5458311;26;20695;-78
2024/04/08 01:04:46;;;;;;;3.72;2.35;;;12.90;94.60;;;;;;5468071;26;20017;-80
2024/04/08 01:07:13;;;;;;;4.63;2.40;;;12.80;94.30;;;;;;5470039;26;19995;-79
2024/04/08 01:09:40;;;;;;;9.93;2.33;;;12.80;94.70;;;;;;5495614;26;20040;-79
2024/04/08 01:12:07;;;;;;;4.03;2.30;;;12.80;94.70;;;;;;5473900;26;20051;-79
2024/04/08 01:14:34;;;;;;;5.47;2.38;;;12.80;94.50;;;;;;5505316;26;19995;-80
2024/04/08 01:17:01;;;;;;;4.35;2.42;;;12.80;94.80;;;;;;5505329;26;19998;-78
2024/04/08 01:19:31;;;;;;;4.35;2.22;;;12.70;94.70;;;;;;5430332;26;20068;-79
2024/04/08 01:22:00;;;;;;;3.15;2.15;;;12.70;95.00;;;;;;5470237;26;19998;-80
2024/04/08 01:24:27;;;;;;;7.60;2.58;;;12.70;95.10;;;;;;5412484;26;20000;-79
2024/04/08 01:26:54;;;;;;;3.67;1.83;;;12.60;95.20;;;;;;5384663;26;20393;-78
2024/04/08 01:29:21;;;;;;;6.18;2.50;;;12.60;95.10;;;;;;5388676;26;20065;-79
2024/04/08 01:31:48;;;;;;;6.68;2.80;;;12.60;94.70;;;;;;5378582;26;20070;-79
2024/04/08 01:34:15;;;;;;;8.00;2.95;;;12.60;95.10;;;;;;5384497;26;20038;-80
2024/04/08 01:36:43;;;;;;;4.20;2.25;;;12.60;95.10;;;;;;5387413;26;19997;-78
2024/04/08 01:39:10;;;;;;;6.35;2.58;;;12.60;95.10;;;;;;5385733;26;20070;-79
2024/04/08 01:41:37;;;;;;;6.07;2.20;;;12.60;94.90;;;;;;5390665;26;19995;-79
2024/04/08 01:44:04;;;;;;;6.35;2.45;;;12.50;95.50;;;;;;5394687;26;19996;-79
2024/04/08 01:46:31;;;;;;;3.13;2.20;;;12.50;95.50;;;;;;5393151;26;20000;-78
2024/04/08 01:48:58;;;;;;;5.38;2.53;;;12.50;95.40;;;;;;5399089;26;20011;-78
2024/04/08 01:51:27;;;;;;;4.20;2.50;;;12.40;95.40;;;;;;5401479;26;20356;-79
2024/04/08 01:53:54;;;;;;;5.03;2.38;;;12.40;95.60;;;;;;5403944;26;20011;-78
2024/04/08 01:56:21;;;;;;;6.93;2.40;;;12.40;95.80;;;;;;5405705;26;20341;-78
2024/04/08 01:58:50;;;;;;;4.43;2.45;;;12.40;95.60;;;;;;5408298;26;20016;-80
2024/04/08 02:01:17;;;;;;;3.97;2.42;;;12.40;95.90;;;;;;5397271;26;19999;-78
2024/04/08 02:03:44;;;;;;;3.67;2.15;;;12.40;95.80;;;;;;5411035;26;19999;-80
2024/04/08 02:06:11;;;;;;;3.30;2.08;;;12.40;95.80;;;;;;5380151;26;20000;-80
2024/04/08 02:08:38;;;;;;;3.55;2.00;;;12.40;96.00;;;;;;5383032;26;20070;-79
2024/04/08 02:11:05;;;;;;;5.00;2.45;;;12.30;95.80;;;;;;5408076;26;19997;-79
2024/04/08 02:13:35;;;;;;;3.70;2.15;;;12.40;95.90;;;;;;5397037;26;19996;-79
2024/04/08 02:16:07;;;;;;;4.75;2.20;;;12.30;95.70;;;;;;5405445;26;20004;-79
2024/04/08 02:18:34;;;;;;;3.25;2.13;;;12.30;95.80;;;;;;5395658;26;20041;-78
2024/04/08 02:21:02;;;;;;;5.03;1.73;;;12.30;96.00;;;;;;5398011;26;20371;-79
2024/04/08 02:23:29;;;;;;;4.25;1.90;;;12.30;95.70;;;;;;5395691;26;20017;-79
2024/04/08 02:25:57;;;;;;;7.13;2.05;;;12.30;95.90;;;;;;5394896;26;20074;-79
2024/04/08 02:28:24;;;;;;;4.45;2.15;;;12.30;96.20;;;;;;5393363;26;20031;-79
2024/04/08 02:30:51;;;;;;;4.18;2.10;;;12.30;95.90;;;;;;5399799;26;20074;-79
2024/04/08 02:33:19;;;;;;;2.53;1.80;;;12.20;96.10;;;;;;5389284;26;19996;-79
2024/04/08 02:35:46;;;;;;;3.75;2.15;;;12.20;96.40;;;;;;5388305;26;20586;-79
2024/04/08 02:38:13;;;;;;;6.10;2.10;;;12.20;96.40;;;;;;5407546;26;20009;-80
2024/04/08 02:40:40;;;;;;;3.05;2.10;;;12.20;96.20;;;;;;5412840;26;20069;-79
2024/04/08 02:43:09;;;;;;;6.88;2.50;;;12.20;95.90;;;;;;5413381;26;20015;-78
2024/04/08 02:45:36;;;;;;;6.45;2.15;;;12.10;96.00;;;;;;5386187;26;20010;-79
2024/04/08 02:48:03;;;;;;;3.25;1.92;;;12.10;96.20;;;;;;5383614;26;20004;-79
2024/04/08 02:50:30;;;;;;;4.53;2.10;;;12.10;96.60;;;;;;5384285;26;20012;-79
2024/04/08 02:52:57;;;;;;;3.90;2.20;;;12.10;96.80;;;;;;5386903;26;20001;-79
2024/04/08 02:55:24;;;;;;;4.82;1.83;;;12.00;96.70;;;;;;5389575;26;20007;-79
2024/04/08 02:57:53;;;;;;;2.85;2.05;;;12.00;96.60;;;;;;5392289;26;20006;-80
2024/04/08 03:00:23;;;;;;;4.43;2.10;;;12.00;96.50;;;;;;5393437;26;20001;-79
2024/04/08 03:02:52;;;;;;;10.70;2.90;;;11.90;96.40;;;;;;5397231;26;20000;-78
2024/04/08 03:05:22;;;;;;;5.53;2.13;;;11.80;97.00;;;;;;5398113;26;20413;-80
2024/04/08 03:07:52;;;;;;;3.97;2.42;;;11.80;97.00;;;;;;5399211;26;20062;-80
2024/04/08 03:10:19;;;;;;;3.85;2.70;;;11.80;97.90;;;;;;5393573;26;20014;-79
2024/04/08 03:12:46;;;;;;;7.22;2.72;;;11.80;97.50;;;;;;5392011;26;20016;-79
2024/04/08 03:15:13;;;;;;;5.63;2.30;;;11.80;97.50;;;;;;5384846;26;20012;-79
2024/04/08 03:17:40;;;;;;;4.63;2.28;;;11.80;97.30;;;;;;5386036;26;20056;-79
2024/04/08 03:20:08;;;;;;;5.35;2.70;;;11.80;97.20;;;;;;5384512;26;19996;-78
2024/04/08 03:22:35;;;;;;;4.88;2.38;;;11.80;97.40;;;;;;5383727;26;20009;-78
2024/04/08 03:25:02;;;;;;;7.10;2.40;;;11.70;97.00;;;;;;5415016;26;20050;-78
2024/04/08 03:27:34;;;;;;;3.08;2.13;;;11.70;97.40;;;;;;5486181;26;20002;-79
2024/04/08 03:30:01;;;;;;;5.68;2.50;;;11.80;97.50;;;;;;5512958;26;19998;-78
2024/04/08 03:32:32;;;;;;;4.55;2.35;;;11.80;97.70;;;;;;5480626;26;20002;-79
2024/04/08 03:34:59;;;;;;;6.25;2.30;;;11.80;97.60;;;;;;5473411;26;20005;-79
2024/04/08 03:37:26;;;;;;;6.97;3.03;;;11.80;97.40;;;;;;5471909;26;20010;-79
2024/04/08 03:39:53;;;;;;;7.72;3.95;;;11.80;97.50;;;;;;5440747;26;20047;-79
2024/04/08 03:42:23;;;;;;;9.63;3.03;;;11.80;97.60;;;;;;5472045;26;20006;-80
2024/04/08 03:44:52;;;;;;;4.18;2.63;;;11.80;97.60;;;;;;5497323;26;19999;-78
2024/04/08 03:47:21;;;;;;;5.07;2.60;;;11.70;98.10;;;;;;5466830;26;19995;-79
2024/04/08 03:49:52;;;;;;;4.47;2.15;;;11.60;97.70;;;;;;5493688;26;20003;-79
2024/04/08 03:52:19;;;;;;;6.72;2.88;;;11.70;97.70;;;;;;5430644;26;19994;-78
2024/04/08 03:54:46;;;;;;;8.43;3.38;;;11.60;97.80;;;;;;5429075;26;20068;-79
2024/04/08 03:57:15;;;;;;;10.50;3.60;;;11.60;97.70;;;;;;5446421;26;19994;-80
2024/04/08 03:59:46;;;;;;;7.75;3.22;;;11.60;97.50;;;;;;5457336;26;20072;-80
2024/04/08 04:02:13;;;;;;;11.80;3.42;;;11.60;97.40;;;;;;5456650;26;20010;-80
2024/04/08 04:04:42;;;;;;;2.92;2.15;;;11.60;97.60;;;;;;5458348;26;20005;-78
2024/04/08 04:07:09;;;;;;;4.57;2.13;;;11.50;97.20;;;;;;5465506;26;20017;-80
2024/04/08 04:09:36;;;;;;;8.32;2.78;;;11.50;97.50;;;;;;5482602;26;20042;-78
2024/04/08 04:12:03;;;;;;;5.50;3.25;;;11.40;97.60;;;;;;5480213;26;20003;-78
2024/04/08 04:14:30;;;;;;;10.95;5.78;;;11.40;97.90;;;;;;5470036;26;20013;-79
2024/04/08 04:16:59;;;;;;;10.35;4.57;;;11.40;97.70;;;;;;5465889;26;20013;-79
2024/04/08 04:19:26;;;;;;;7.63;4.30;;;11.40;97.90;;;;;;5472445;26;20064;-80
2024/04/08 04:21:53;;;;;;;5.00;3.00;;;11.40;98.20;;;;;;5437279;26;20002;-80
2024/04/08 04:24:20;;;;;;;7.97;3.10;;;11.40;98.40;;;;;;5496887;26;19995;-79
2024/04/08 04:26:48;;;;;;;7.15;3.90;;;11.30;98.50;;;;;;5488503;26;19995;-80
2024/04/08 04:29:15;;;;;;;8.82;4.55;;;11.30;98.40;;;;;;5430786;26;20003;-77
2024/04/08 04:31:44;;;;;;;5.22;3.70;;;11.30;98.60;;;;;;5463512;26;20003;-79
2024/04/08 04:34:14;;;;;;;9.98;3.70;;;11.30;98.60;;;;;;5426239;26;20007;-78
2024/04/08 04:36:41;;;;;;;5.55;2.75;;;11.30;98.60;;;;;;5461239;26;20314;-79
2024/04/08 04:39:10;;;;;;;4.40;2.88;;;11.30;98.20;;;;;;5517600;26;20064;-79
2024/04/08 04:41:36;;;;;;;11.48;3.22;;;11.30;98.50;;;;;;5515571;26;20048;-76
2024/04/08 04:44:04;;;;;;;7.93;2.88;;;11.30;98.60;;;;;;5511965;25;19998;-77
2024/04/08 04:46:31;;;;;;;6.93;3.00;;;11.20;98.70;;;;;;5482236;26;20422;-76
2024/04/08 04:48:58;;;;;;;10.25;3.15;;;11.20;98.80;;;;;;5479749;26;20007;-77
2024/04/08 04:51:25;;;;;;;5.20;2.78;;;11.20;99.00;;;;;;5476405;26;20006;-78
2024/04/08 04:53:52;;;;;;;8.52;2.90;;;11.20;99.10;;;;;;5476991;26;19998;-77
2024/04/08 04:56:19;;;;;;;8.20;2.42;;;11.20;99.00;;;;;;5442100;26;20011;-77
2024/04/08 04:58:45;;;;;;;7.25;3.10;;;11.20;99.00;;;;;;5437655;26;19998;-77
2024/04/08 05:01:12;;;;;;;8.65;2.60;;;11.10;99.10;;;;;;5472182;26;20006;-78
2024/04/08 05:03:39;;;;;;;7.63;2.80;;;11.10;99.40;;;;;;5447042;26;19994;-77
2024/04/08 05:06:08;;;;;;;5.65;2.83;;;11.20;99.40;;;;;;5481386;26;19995;-77
2024/04/08 05:08:38;;;;;;;5.85;2.50;;;11.20;99.30;;;;;;5504931;26;20007;-77
2024/04/08 05:11:07;;;;;;;6.00;2.90;;;11.20;99.20;;;;;;5454314;26;20009;-78
2024/04/08 05:13:35;;;;;;;6.10;3.15;;;11.10;99.10;;;;;;5431309;26;19994;-77
2024/04/08 05:16:04;;;;;;;6.03;3.83;;;11.20;99.20;;;;;;5489334;26;20407;-77
2024/04/08 05:18:34;;;;;;;6.70;3.78;;;11.10;99.20;;;;;;5455909;26;19998;-78
2024/04/08 05:21:03;;;;;;;7.07;3.35;;;11.10;99.40;;;;;;5513661;26;20023;-77
2024/04/08 05:23:32;;;;;;;8.93;3.25;;;11.10;99.40;;;;;;5504917;26;20005;-78
2024/04/08 05:25:59;;;;;;;9.93;2.75;;;11.20;99.40;;;;;;5478243;26;20071;-77
2024/04/08 05:28:26;;;;;;;5.85;2.83;;;11.20;99.40;;;;;;5460603;26;19994;-78
2024/04/08 05:30:53;;;;;;;8.23;3.03;;;11.20;99.50;;;;;;5467979;26;20068;-77
2024/04/08 05:33:20;;;;;;;6.57;2.97;;;11.20;99.30;;;;;;5439654;26;20010;-77
2024/04/08 05:35:47;;;;;;;5.32;2.35;;;11.30;99.20;;;;;;5462187;26;20010;-77
2024/04/08 05:38:15;;;;;;;8.63;3.00;;;11.30;99.00;;;;;;5442861;26;19998;-77
2024/04/08 05:40:42;;;;;;;8.10;2.90;;;11.40;99.00;;;;;;5472188;26;20061;-77
2024/04/08 05:43:16;;;;;;;7.13;3.17;;;11.50;99.20;;;;;;5458275;26;20010;-77
2024/04/08 05:45:48;;;;;;;6.32;2.85;;;11.50;98.90;;;;;;5478893;26;20002;-77
2024/04/08 05:48:15;;;;;;;5.07;2.90;;;11.50;98.90;;;;;;5455560;26;20075;-77
2024/04/08 05:50:42;;;;;;;4.15;2.80;;;11.60;98.90;;;;;;5471991;26;20382;-76
2024/04/08 05:53:11;;;;;;;5.80;2.85;;;11.70;99.00;;;;;;5453232;26;20346;-77
2024/04/08 05:55:38;;;;;;;7.68;2.80;;;11.70;98.80;;;;;;5463458;26;20014;-77
2024/04/08 05:58:07;;;;;;;6.38;3.00;;;11.80;98.70;;;;;;5477679;26;20074;-77
2024/04/08 06:00:36;;;;;;;7.85;3.42;;;11.90;98.60;;;;;;5507662;26;20010;-78
2024/04/08 06:03:06;;;;;;;4.85;3.20;;;12.00;98.60;;;;;;5462522;26;20010;-78
2024/04/08 06:05:34;;;;;;;6.90;3.17;;;12.00;98.80;;;;;;5506490;26;20009;-78
2024/04/08 06:08:02;;;;;;;6.47;2.97;;;12.10;98.50;;;;;;5423709;26;20003;-78
2024/04/08 06:10:34;;;;;;;11.15;3.40;;;12.20;98.20;;;;;;5498543;26;20429;-79
2024/04/08 06:13:01;;;;;;;5.75;2.95;;;12.40;97.70;;;;;;5493656;26;20028;-79
2024/04/08 06:15:31;;;;;;;9.38;3.50;;;12.40;97.10;;;;;;5462916;26;20415;-79
2024/04/08 06:17:59;;;;;;;8.82;3.53;;;12.50;97.00;;;;;;5448352;26;20003;-78
2024/04/08 06:20:27;;;;;;;6.85;3.00;;;12.50;96.80;;;;;;5423834;26;19999;-79
2024/04/08 06:22:54;;;;;;;7.03;2.97;;;12.60;96.60;;;;;;5403700;26;20462;-79
2024/04/08 06:25:21;;;;;;;6.05;2.95;;;12.70;96.40;;;;;;5435256;26;20002;-78
2024/04/08 06:27:48;;;;;;;6.32;3.20;;;12.80;96.30;;;;;;5441799;26;20287;-78
2024/04/08 06:30:15;;;;;;;8.70;3.20;;;12.80;96.10;;;;;;5466025;26;19995;-79
2024/04/08 06:32:48;;;;;;;7.68;3.35;;;12.90;96.20;;;;;;5479416;26;20063;-79
2024/04/08 06:35:19;;;;;;;9.00;3.00;;;13.00;96.10;;;;;;5446527;26;19995;-78
2024/04/08 06:37:48;;;;;;;6.35;2.80;;;13.10;95.60;;;;;;5494045;26;19998;-78
2024/04/08 06:40:15;;;;;;;6.75;2.90;;;13.20;95.30;;;;;;5461961;26;20015;-79
2024/04/08 06:42:42;;;;;;;6.32;3.20;;;13.20;94.60;;;;;;5504633;26;20014;-79
2024/04/08 06:45:09;;;;;;;7.10;3.08;;;13.40;94.30;;;;;;5430730;26;20293;-79
2024/04/08 06:47:39;;;;;;;8.55;3.15;;;13.30;94.40;;;;;;5469906;26;20023;-79
2024/04/08 06:50:06;;;;;;;5.60;3.13;;;13.40;94.30;;;;;;5440519;26;20009;-79
2024/04/08 06:52:33;;;;;;;7.25;3.03;;;13.50;94.20;;;;;;5462744;26;20064;-78
2024/04/08 06:55:01;;;;;;;12.05;3.20;;;13.60;93.90;;;;;;5507519;26;20010;-79
2024/04/08 06:57:28;;;;;;;6.72;3.20;;;13.70;93.20;;;;;;5505453;26;20079;-79
2024/04/08 06:59:55;;;;;;;7.97;3.15;;;13.90;93.10;;;;;;5430169;26;20003;-79
2024/04/08 07:02:22;;;;;;;4.35;2.70;;;14.00;93.10;;;;;;5429975;26;20045;-79
2024/04/08 07:04:51;;;;;;;6.20;2.88;;;14.10;91.30;;;;;;5460026;26;20365;-79
2024/04/08 07:07:20;;;;;;;10.07;2.85;;;14.20;91.30;;;;;;5496141;25;20076;-79
2024/04/08 07:09:47;;;;;;;8.50;2.67;;;14.40;91.50;;;;;;5475776;26;20025;-79
2024/04/08 07:12:14;;;;;;;5.38;3.03;;;14.50;91.30;;;;;;5426783;26;20412;-79
2024/04/08 07:14:41;;;;;;;5.85;2.80;;;14.70;91.40;;;;;;5469091;26;20065;-79
2024/04/08 07:17:08;;;;;;;7.60;2.45;;;14.80;91.10;;;;;;5483802;26;20009;-79
2024/04/08 07:19:34;;;;;;;10.77;2.83;;;15.00;90.40;;;;;;5481996;26;19994;-79
2024/04/08 07:22:01;;;;;;;6.55;2.53;;;15.20;90.70;;;;;;5473493;26;20443;-79
2024/04/08 07:24:28;;;;;;;7.07;2.70;;;15.40;90.40;;;;;;5504829;26;20009;-79
2024/04/08 07:26:55;;;;;;;10.10;2.63;;;15.50;89.70;;;;;;5473932;26;20006;-79
2024/04/08 07:29:22;;;;;;;6.30;2.60;;;15.80;87.60;;;;;;5473297;26;20002;-79
2024/04/08 07:31:49;;;;;;;8.93;2.70;;;16.00;86.10;;;;;;5468647;26;20075;-80
2024/04/08 07:34:19;;;;;;;8.45;2.88;;;16.20;85.00;;;;;;5435389;26;20072;-80
2024/04/08 07:36:46;;;;;;;5.13;2.88;;;16.40;84.40;;;;;;5464276;26;19995;-80
2024/04/08 07:39:16;;;;;;;4.15;2.47;;;16.60;83.80;;;;;;5470389;26;20059;-79
2024/04/08 07:41:43;;;;;;;9.57;2.65;;;16.80;82.90;;;;;;5435117;26;20006;-80
2024/04/08 07:44:10;;;;;;;6.78;2.90;;;17.00;77.90;;;;;;5478796;26;20031;-79
2024/04/08 07:46:39;;;;;;;8.65;3.28;;;17.20;76.90;;;;;;5490578;26;19998;-80
2024/04/08 07:49:07;;;;;;;10.40;3.50;;;17.40;78.40;;;;;;5478837;26;20007;-80
2024/04/08 07:51:34;;;;;;;6.40;4.05;;;17.60;78.70;;;;;;5459521;26;19995;-80
2024/04/08 07:54:01;;;;;;;13.82;5.20;;;17.80;77.90;;;;;;5462044;26;20060;-80
2024/04/08 07:56:28;;;;;;;8.30;4.50;;;18.00;77.90;;;;;;5433678;26;20009;-80
2024/04/08 07:58:55;;;;;;;22.70;4.68;;;18.20;78.60;;;;;;5472387;26;20007;-80
2024/04/08 08:01:22;;;;;;;10.65;4.88;;;18.40;76.70;;;;;;5505202;25;20040;-80
2024/04/08 08:03:49;;;;;;;15.95;5.07;;;18.60;77.10;;;;;;5470312;26;20071;-80
2024/04/08 08:06:16;;;;;;;12.95;5.13;;;18.90;76.10;;;;;;5502744;25;20303;-81
2024/04/08 08:08:43;;;;;;;10.45;5.32;;;19.00;75.30;;;;;;5438065;26;20001;-80
2024/04/08 08:11:10;;;;;;;11.45;5.40;;;19.20;76.10;;;;;;5441842;26;20006;-80
2024/04/08 08:13:37;;;;;;;10.88;5.57;;;19.50;74.10;;;;;;5478793;26;20348;-80
2024/04/08 08:16:05;;;;;;;17.77;5.68;;;19.60;74.60;;;;;;5482778;26;20038;-80
2024/04/08 08:18:34;;;;;;;11.20;5.50;;;19.80;71.30;;;;;;5481541;26;20064;-81
2024/04/08 08:21:02;;;;;;;12.27;5.20;;;20.00;72.10;;;;;;5420151;26;20003;-80
2024/04/08 08:23:29;;;;;;;12.55;5.53;;;20.20;72.00;;;;;;5454926;26;20075;-80
2024/04/08 08:25:56;;;;;;;12.88;5.75;;;20.40;72.00;;;;;;5488935;26;20047;-80
2024/04/08 08:28:24;;;;;;;11.00;4.82;;;20.60;71.00;;;;;;5425419;26;20015;-81
2024/04/08 08:30:52;;;;;;;15.07;5.35;;;20.80;70.60;;;;;;5431336;26;19995;-81
2024/04/08 08:33:22;;;;;;;8.73;5.35;;;21.00;69.10;;;;;;5448514;26;20002;-81
2024/04/08 08:35:50;;;;;;;13.82;5.00;;;21.20;68.70;;;;;;5508816;26;20011;-81
2024/04/08 08:38:17;;;;;;;12.13;5.13;;;21.40;67.30;;;;;;5472167;26;20017;-81
2024/04/08 08:40:50;;;;;;;13.30;5.28;;;21.50;66.70;;;;;;5472503;26;20008;-81
2024/04/08 08:43:18;;;;;;;12.90;5.20;;;21.60;65.00;;;;;;5440864;26;20018;-81
2024/04/08 08:45:49;;;;;;;10.13;5.93;;;21.80;65.50;;;;;;5439526;26;20018;-81
2024/04/08 08:48:16;;;;;;;11.00;5.40;;;21.90;64.50;;;;;;5446268;26;19998;-81
2024/04/08 08:50:45;;;;;;;9.88;5.35;;;22.00;65.60;;;;;;5432279;26;20004;-81
2024/04/08 08:53:12;;;;;;;11.18;5.50;;;22.10;64.40;;;;;;5475257;26;19998;-81
2024/04/08 08:55:40;;;;;;;11.55;5.13;;;22.30;66.40;;;;;;5454934;26;20006;-81
2024/04/08 08:58:10;;;;;;;16.17;5.63;;;22.50;66.00;;;;;;5462722;26;20481;-81
2024/04/08 09:00:40;;;;;;;10.55;4.93;;;22.70;65.30;;;;;;5475763;26;20022;-81
2024/04/08 09:03:12;;;;;;;9.80;4.90;;;22.90;66.20;;;;;;5452904;26;20013;-81
2024/04/08 09:05:39;;;;;;;13.75;5.93;;;23.10;65.60;;;;;;5425633;26;20007;-81
2024/04/08 09:08:06;;;;;;;13.50;4.93;;;23.30;65.70;;;;;;5458852;26;19995;-81
2024/04/08 09:10:44;;;;;;;14.35;4.85;;;23.40;64.40;;;;;;5437441;26;20014;-82
2024/04/08 09:13:26;;;;;;;12.23;5.10;;;23.60;63.70;;;;;;5443257;26;20303;-81
2024/04/08 09:15:53;;;;;;;9.95;5.05;;;23.90;64.50;;;;;;5474665;26;20027;-81
2024/04/08 09:18:21;;;;;;;10.70;5.32;;;24.00;63.40;;;;;;5505768;26;20002;-81
2024/04/08 09:20:49;;;;;;;9.35;5.20;;;24.20;62.90;;;;;;5439927;26;20008;-81
2024/04/08 09:23:16;;;;;;;8.68;4.55;;;24.30;62.40;;;;;;5495670;26;20009;-81
2024/04/08 09:25:43;;;;;;;10.55;5.30;;;24.50;62.90;;;;;;5421359;26;19998;-81
2024/04/08 09:28:11;;;;;;;10.77;4.93;;;24.80;62.10;;;;;;5464177;26;19994;-81
2024/04/08 09:30:39;;;;;;;9.52;5.30;;;25.00;62.70;;;;;;5471737;26;20163;-82
2024/04/08 09:33:11;;;;;;;11.43;5.00;;;25.30;60.40;;;;;;5476871;26;20006;-82
2024/04/08 09:35:42;;;;;;;11.93;5.25;;;25.40;59.10;;;;;;5473187;26;20006;-81
2024/04/08 09:38:11;;;;;;;7.68;4.53;;;25.60;59.90;;;;;;5466027;26;20034;-81
2024/04/08 09:40:41;;;;;;;11.10;5.30;;;25.70;59.60;;;;;;5431208;26;19998;-81
2024/04/08 09:43:09;;;;;;;10.88;5.13;;;25.90;59.50;;;;;;5467885;26;20076;-81
2024/04/08 09:45:41;;;;;;;10.27;4.88;;;26.10;58.60;;;;;;5457602;26;20007;-82
2024/04/08 09:48:13;;;;;;;9.77;4.85;;;26.30;57.70;;;;;;5429101;26;20429;-82
2024/04/08 09:50:43;;;;;;;9.70;4.55;;;26.50;58.40;;;;;;5479542;26;20344;-82
2024/04/08 09:53:10;;;;;;;9.30;4.95;;;26.70;57.10;;;;;;5469381;26;20005;-82
2024/04/08 09:55:45;;;;;;;15.95;4.38;;;27.00;58.40;;;;;;5435806;26;20009;-82
2024/04/08 09:58:20;;;;;;;7.47;4.47;;;27.20;56.70;;;;;;5503773;26;19994;-82
2024/04/08 10:00:47;;;;;;;9.15;4.72;;;27.40;54.50;;;;;;5438405;26;20068;-81
2024/04/08 10:03:15;;;;;;;9.32;4.50;;;27.40;54.90;;;;;;5470026;26;20009;-81
2024/04/08 10:05:44;;;;;;;15.98;4.78;;;27.50;54.70;;;;;;5471107;26;20023;-82
2024/04/08 10:08:12;;;;;;;10.23;4.35;;;27.50;53.90;;;;;;5437257;26;20314;-82
2024/04/08 10:10:41;;;;;;;12.60;4.90;;;27.60;54.70;;;;;;5497263;26;20001;-82
2024/04/08 10:13:09;;;;;;;9.38;4.60;;;27.60;53.80;;;;;;5457394;26;19994;-83
2024/04/08 10:15:40;;;;;;;12.70;4.43;;;27.70;54.00;;;;;;5460941;26;20011;-83
2024/04/08 10:18:07;;;;;;;9.32;4.00;;;27.80;54.90;;;;;;5454123;26;20002;-83
2024/04/08 10:20:37;;;;;;;9.43;4.22;;;28.00;55.20;;;;;;5467551;26;20010;-82
2024/04/08 10:23:05;;;;;;;9.63;4.30;;;28.10;53.70;;;;;;5472679;26;20015;-82
2024/04/08 10:25:42;;;;;;;11.90;4.53;;;28.20;53.10;;;;;;5448600;26;20029;-83
2024/04/08 10:28:19;;;;;;;8.13;4.15;;;28.40;53.10;;;;;;5476628;26;20449;-83
2024/04/08 10:30:48;;;;;;;16.08;4.30;;;28.50;52.70;;;;;;5479483;26;20002;-84
2024/04/08 10:33:15;;;;;;;9.88;4.45;;;28.70;52.30;;;;;;5440705;26;20044;-83
2024/04/08 10:35:43;;;;;;;10.57;4.43;;;28.80;51.90;;;;;;5465629;26;20003;-82
2024/04/08 10:38:11;;;;;;;9.43;4.22;;;28.90;51.00;;;;;;5441969;26;19995;-82
2024/04/08 10:40:40;;;;;;;8.98;3.78;;;29.10;51.40;;;;;;5502238;26;20023;-83
2024/04/08 10:43:07;;;;;;;8.48;3.90;;;29.20;51.90;;;;;;5477875;26;20018;-84
2024/04/08 10:45:34;;;;;;;7.88;4.05;;;29.40;50.60;;;;;;5467339;26;20011;-85
2024/04/08 10:48:01;;;;;;;8.95;3.67;;;29.60;49.50;;;;;;5506650;26;19998;-84
2024/04/08 10:50:34;;;;;;;7.20;4.20;;;29.80;50.10;;;;;;5433358;26;20035;-84
2024/04/08 10:53:02;;;;;;;10.93;4.05;;;30.00;49.30;;;;;;5479317;26;20350;-84
2024/04/08 10:55:29;;;;;;;11.30;4.32;;;30.20;49.80;;;;;;5470050;26;20003;-84
2024/04/08 10:57:56;;;;;;;6.93;4.03;;;30.40;48.00;;;;;;5517455;26;20030;-83
2024/04/08 11:00:24;;;;;;;7.75;4.10;;;30.40;47.40;;;;;;5438326;26;20011;-83
2024/04/08 11:02:51;;;;;;;7.22;4.32;;;30.40;47.50;;;;;;5458907;26;20006;-83
2024/04/08 11:05:19;;;;;;;10.85;4.55;;;30.20;46.90;;;;;;5433890;26;19990;-83
2024/04/08 11:07:48;;;;;;;7.95;3.90;;;30.20;48.40;;;;;;5444902;26;20026;-84
2024/04/08 11:10:17;;;;;;;6.57;4.00;;;30.00;48.70;;;;;;5441794;26;20003;-83
2024/04/08 11:12:45;;;;;;;12.10;4.03;;;30.00;48.90;;;;;;5496819;26;20020;-82
2024/04/08 11:15:13;;;;;;;5.18;3.55;;;30.10;49.50;;;;;;5464296;26;20064;-83
2024/04/08 11:17:41;;;;;;;8.30;3.80;;;30.20;48.70;;;;;;5469687;26;20003;-83
2024/04/08 11:20:12;;;;;;;9.13;4.00;;;30.10;49.10;;;;;;5498789;26;20387;-83
2024/04/08 11:22:40;;;;;;;6.45;3.40;;;30.10;48.90;;;;;;5446966;26;20006;-84
2024/04/08 11:25:16;;;;;;;9.55;4.18;;;30.20;48.60;;;;;;5437517;26;20606;-83
2024/04/08 11:27:45;;;;;;;14.65;4.65;;;30.20;47.30;;;;;;5468401;26;19998;-81
2024/04/08 11:30:16;;;;;;;7.57;3.72;;;30.20;47.90;;;;;;5473050;26;20006;-82
2024/04/08 11:32:44;;;;;;;8.18;3.60;;;30.10;47.60;;;;;;5427890;26;20003;-81
2024/04/08 11:35:12;;;;;;;10.85;4.30;;;30.20;47.90;;;;;;5518794;26;20002;-81
2024/04/08 11:37:40;;;;;;;6.93;3.75;;;30.30;48.70;;;;;;5501169;25;20291;-81
2024/04/08 11:40:12;;;;;;;12.82;4.38;;;30.40;47.30;;;;;;5476090;26;19999;-81
2024/04/08 11:42:39;;;;;;;8.30;3.60;;;30.50;47.90;;;;;;5475917;26;20373;-81
2024/04/08 11:45:07;;;;;;;7.88;3.97;;;30.60;47.40;;;;;;5479930;26;20327;-81
2024/04/08 11:47:36;;;;;;;9.48;4.50;;;30.60;47.80;;;;;;5465360;26;20038;-81
2024/04/08 11:50:03;;;;;;;8.30;4.25;;;30.70;47.80;;;;;;5504121;26;19994;-82
2024/04/08 11:52:31;;;;;;;7.22;4.13;;;30.70;47.30;;;;;;5477741;26;20480;-82
2024/04/08 11:55:00;;;;;;;14.57;4.00;;;30.80;47.20;;;;;;5502822;26;20064;-83
2024/04/08 11:57:30;;;;;;;9.33;4.00;;;30.90;48.10;;;;;;5465983;26;20014;-82
2024/04/08 11:59:57;;;;;;;10.48;4.07;;;30.90;47.10;;;;;;5473914;26;20068;-82
2024/04/08 12:02:24;;;;;;;7.70;4.03;;;30.80;47.10;;;;;;5469385;26;20027;-82
2024/04/08 12:04:52;;;;;;;7.85;3.88;;;30.70;47.00;;;;;;5437516;26;20059;-82
2024/04/08 12:07:19;;;;;;;13.68;3.67;;;30.60;47.40;;;;;;5442754;26;19999;-82
2024/04/08 12:09:46;;;;;;;10.30;3.38;;;30.50;47.70;;;;;;5433183;26;20495;-82
2024/04/08 12:12:14;;;;;;;8.05;3.78;;;30.50;47.60;;;;;;5485913;26;20055;-82
2024/04/08 12:14:41;;;;;;;6.03;3.15;;;30.50;47.70;;;;;;5432228;26;19999;-82
2024/04/08 12:17:09;;;;;;;7.53;3.40;;;30.40;46.30;;;;;;5454727;26;20002;-82
2024/04/08 12:19:37;;;;;;;5.65;3.55;;;30.40;47.10;;;;;;5471632;26;20010;-82
2024/04/08 12:22:06;;;;;;;10.77;3.28;;;30.40;47.10;;;;;;5432796;26;20123;-82
2024/04/08 12:24:33;;;;;;;9.55;3.13;;;30.40;46.90;;;;;;5471518;26;20011;-82
2024/04/08 12:27:00;;;;;;;6.07;3.08;;;30.30;46.60;;;;;;5499770;26;20070;-81
2024/04/08 12:29:27;;;;;;;5.38;3.40;;;30.20;46.50;;;;;;5469804;26;19995;-82
2024/04/08 12:31:56;;;;;;;7.05;2.83;;;30.10;45.90;;;;;;5470746;26;19994;-82
2024/04/08 12:34:23;;;;;;;5.20;3.03;;;30.00;45.90;;;;;;5436823;26;20010;-82
2024/04/08 12:36:50;;;;;;;6.55;2.88;;;30.10;46.10;;;;;;5465498;26;19998;-82
2024/04/08 12:39:17;;;;;;;6.03;2.70;;;30.20;46.90;;;;;;5446810;26;20299;-82
2024/04/08 12:41:44;;;;;;;6.47;2.55;;;30.20;46.30;;;;;;5513005;26;20002;-82
2024/04/08 12:44:12;;;;;;;6.20;2.88;;;30.20;46.80;;;;;;5474273;26;20011;-82
2024/04/08 12:46:40;;;;;;;7.90;2.75;;;30.30;47.60;;;;;;5487971;26;20013;-83
2024/04/08 12:49:07;;;;;;;7.40;2.67;;;30.40;46.90;;;;;;5494163;26;20080;-82